createdAt,value
2018-12-20T00:00:37.506Z,0
2018-12-20T00:01:36.895Z,0
2018-12-20T00:02:36.885Z,0
2018-12-20T00:03:37.304Z,0
2018-12-20T00:04:36.998Z,0
2018-12-20T00:05:36.935Z,0
2018-12-20T00:06:37.690Z,0
2018-12-20T00:07:37.385Z,0
2018-12-20T00:08:37.448Z,0
2018-12-20T00:09:37.333Z,0
2018-12-20T00:10:37.344Z,0
2018-12-20T00:11:37.419Z,0
2018-12-20T00:12:37.308Z,0
2018-12-20T00:13:37.388Z,0
2018-12-20T00:14:37.149Z,0
2018-12-20T00:15:37.352Z,0
2018-12-20T00:16:37.273Z,0
2018-12-20T00:17:37.387Z,0
2018-12-20T00:18:42.438Z,0
2018-12-20T00:19:37.417Z,0
2018-12-20T00:20:37.461Z,0
2018-12-20T00:21:37.259Z,0
2018-12-20T00:22:37.029Z,0
2018-12-20T00:23:37.263Z,0
2018-12-20T00:24:37.344Z,0
2018-12-20T00:25:37.065Z,0
2018-12-20T00:26:37.125Z,0
2018-12-20T00:27:37.328Z,0
2018-12-20T00:28:37.075Z,0
2018-12-20T00:29:37.276Z,0
2018-12-20T00:30:37.146Z,0
2018-12-20T00:31:37.235Z,0
2018-12-20T00:32:37.546Z,0
2018-12-20T00:33:36.984Z,0
2018-12-20T00:34:37.094Z,0
2018-12-20T00:35:37.088Z,0
2018-12-20T00:36:37.549Z,0
2018-12-20T00:37:37.199Z,0
2018-12-20T00:38:36.963Z,0
2018-12-20T00:39:36.573Z,0
2018-12-20T00:40:37.443Z,0
2018-12-20T00:41:36.830Z,0
2018-12-20T00:42:37.306Z,0
2018-12-20T00:43:37.434Z,0
2018-12-20T00:44:44.460Z,0
2018-12-20T00:45:37.316Z,0
2018-12-20T00:46:36.776Z,0
2018-12-20T00:47:37.241Z,0
2018-12-20T00:48:36.978Z,0
2018-12-20T00:49:38.245Z,0
2018-12-20T00:50:36.681Z,0
2018-12-20T00:51:37.168Z,0
2018-12-20T00:52:37.482Z,0
2018-12-20T00:53:37.735Z,0
2018-12-20T00:54:36.873Z,0
2018-12-20T00:55:36.635Z,0
2018-12-20T00:56:37.140Z,0
2018-12-20T00:57:37.163Z,0
2018-12-20T00:58:36.197Z,0
2018-12-20T00:59:37.521Z,0
2018-12-20T01:00:37.637Z,0
2018-12-20T01:01:36.887Z,0
2018-12-20T01:02:37.064Z,0
2018-12-20T01:03:37.034Z,0
2018-12-20T01:04:37.023Z,0
2018-12-20T01:05:37.001Z,0
2018-12-20T01:06:37.135Z,0
2018-12-20T01:07:37.049Z,0
2018-12-20T01:08:36.741Z,0
2018-12-20T01:09:36.886Z,0
2018-12-20T01:10:36.666Z,0
2018-12-20T01:11:36.546Z,0
2018-12-20T01:12:36.947Z,0
2018-12-20T01:13:37.156Z,0
2018-12-20T01:14:41.843Z,0
2018-12-20T01:15:36.709Z,0
2018-12-20T01:16:37.040Z,0
2018-12-20T01:17:36.355Z,0
2018-12-20T01:18:36.705Z,0
2018-12-20T01:19:37.070Z,0
2018-12-20T01:20:36.563Z,0
2018-12-20T01:21:36.587Z,0
2018-12-20T01:22:36.642Z,0
2018-12-20T01:23:36.756Z,0
2018-12-20T01:24:36.890Z,0
2018-12-20T01:25:36.417Z,0
2018-12-20T01:26:36.414Z,0
2018-12-20T01:27:36.786Z,0
2018-12-20T01:28:36.847Z,0
2018-12-20T01:29:36.658Z,0
2018-12-20T01:30:36.831Z,0
2018-12-20T01:31:36.882Z,0
2018-12-20T01:32:36.879Z,0
2018-12-20T01:33:36.596Z,0
2018-12-20T01:34:36.629Z,0
2018-12-20T01:35:37.065Z,0
2018-12-20T01:36:36.901Z,0
2018-12-20T01:37:36.191Z,0
2018-12-20T01:38:36.772Z,0
2018-12-20T01:39:36.409Z,0
2018-12-20T01:40:36.514Z,0
2018-12-20T01:41:36.356Z,0
2018-12-20T01:42:36.125Z,0
2018-12-20T01:43:36.778Z,0
2018-12-20T01:44:36.610Z,0
2018-12-20T01:45:36.622Z,0
2018-12-20T01:46:36.540Z,0
2018-12-20T01:47:36.735Z,0
2018-12-20T01:48:36.471Z,0
2018-12-20T01:49:36.875Z,0
2018-12-20T01:50:36.848Z,0
2018-12-20T01:51:36.392Z,0
2018-12-20T01:52:36.630Z,0
2018-12-20T01:53:36.669Z,0
2018-12-20T01:54:36.446Z,0
2018-12-20T01:55:36.850Z,0
2018-12-20T01:56:37.041Z,0
2018-12-20T01:57:36.531Z,0
2018-12-20T01:58:36.003Z,0
2018-12-20T01:59:36.612Z,0
2018-12-20T02:00:36.219Z,0
2018-12-20T02:01:36.366Z,0
2018-12-20T02:02:36.040Z,0
2018-12-20T02:03:36.487Z,0
2018-12-20T02:04:36.085Z,0
2018-12-20T02:05:36.223Z,0
2018-12-20T02:06:36.853Z,0
2018-12-20T02:07:36.841Z,0
2018-12-20T02:08:36.330Z,0
2018-12-20T02:09:36.241Z,0
2018-12-20T02:10:36.446Z,0
2018-12-20T02:11:36.136Z,0
2018-12-20T02:12:36.445Z,0
2018-12-20T02:13:36.779Z,0
2018-12-20T02:14:36.073Z,0
2018-12-20T02:15:36.594Z,0
2018-12-20T02:16:36.185Z,0
2018-12-20T02:17:36.372Z,0
2018-12-20T02:18:36.281Z,0
2018-12-20T02:19:36.257Z,0
2018-12-20T02:20:36.803Z,0
2018-12-20T02:21:36.139Z,0
2018-12-20T02:22:36.540Z,0
2018-12-20T02:23:36.283Z,0
2018-12-20T02:24:36.645Z,0
2018-12-20T02:25:36.430Z,0
2018-12-20T02:26:36.495Z,0
2018-12-20T02:27:36.097Z,0
2018-12-20T02:28:36.323Z,0
2018-12-20T02:29:36.173Z,0
2018-12-20T02:30:36.576Z,0
2018-12-20T02:31:35.962Z,0
2018-12-20T02:32:36.224Z,0
2018-12-20T02:33:35.907Z,0
2018-12-20T02:34:36.392Z,0
2018-12-20T02:35:36.508Z,0
2018-12-20T02:36:36.647Z,0
2018-12-20T02:37:36.473Z,0
2018-12-20T02:38:36.070Z,0
2018-12-20T02:39:36.252Z,0
2018-12-20T02:40:36.486Z,0
2018-12-20T02:41:35.641Z,0
2018-12-20T02:42:36.233Z,0
2018-12-20T02:43:36.445Z,0
2018-12-20T02:44:36.457Z,0
2018-12-20T02:45:35.982Z,0
2018-12-20T02:46:36.059Z,0
2018-12-20T02:47:36.155Z,0
2018-12-20T02:48:35.589Z,0
2018-12-20T02:49:36.045Z,0
2018-12-20T02:50:37.722Z,0
2018-12-20T02:51:36.334Z,0
2018-12-20T02:52:36.142Z,0
2018-12-20T02:53:36.108Z,0
2018-12-20T02:54:36.002Z,0
2018-12-20T02:55:36.183Z,0
2018-12-20T02:56:36.057Z,0
2018-12-20T02:57:36.199Z,0
2018-12-20T02:58:36.632Z,0
2018-12-20T02:59:35.970Z,0
2018-12-20T03:00:36.429Z,0
2018-12-20T03:01:35.906Z,0
2018-12-20T03:02:35.825Z,0
2018-12-20T03:03:35.632Z,0
2018-12-20T03:04:36.191Z,0
2018-12-20T03:05:36.233Z,0
2018-12-20T03:06:35.366Z,0
2018-12-20T03:07:36.411Z,0
2018-12-20T03:08:36.186Z,0
2018-12-20T03:09:36.043Z,0
2018-12-20T03:10:35.794Z,0
2018-12-20T03:11:36.101Z,0
2018-12-20T03:12:35.895Z,0
2018-12-20T03:13:37.052Z,0
2018-12-20T03:14:36.289Z,0
2018-12-20T03:15:35.739Z,0
2018-12-20T03:16:35.309Z,0
2018-12-20T03:17:35.611Z,0
2018-12-20T03:18:35.809Z,0
2018-12-20T03:19:35.614Z,0
2018-12-20T03:20:36.095Z,0
2018-12-20T03:21:36.470Z,0
2018-12-20T03:22:35.830Z,0
2018-12-20T03:23:36.597Z,0
2018-12-20T03:24:35.556Z,0
2018-12-20T03:25:36.400Z,0
2018-12-20T03:26:35.311Z,0
2018-12-20T03:27:36.094Z,0
2018-12-20T03:28:36.067Z,0
2018-12-20T03:29:35.327Z,0
2018-12-20T03:30:35.426Z,0
2018-12-20T03:31:36.369Z,0
2018-12-20T03:32:36.562Z,0
2018-12-20T03:33:35.727Z,0
2018-12-20T03:34:36.124Z,0
2018-12-20T03:35:35.728Z,0
2018-12-20T03:36:38.166Z,0
2018-12-20T03:37:35.821Z,0
2018-12-20T03:38:35.809Z,0
2018-12-20T03:39:35.710Z,0
2018-12-20T03:40:35.816Z,0
2018-12-20T03:41:35.926Z,0
2018-12-20T03:42:35.692Z,0
2018-12-20T03:43:35.892Z,0
2018-12-20T03:44:35.878Z,0
2018-12-20T03:45:36.336Z,0
2018-12-20T03:46:35.603Z,0
2018-12-20T03:47:35.939Z,0
2018-12-20T03:48:35.408Z,0
2018-12-20T03:49:35.726Z,0
2018-12-20T03:50:35.983Z,0
2018-12-20T03:51:36.745Z,0
2018-12-20T03:52:34.788Z,0
2018-12-20T03:53:35.963Z,0
2018-12-20T03:54:35.838Z,0
2018-12-20T03:55:36.007Z,0
2018-12-20T03:56:35.549Z,0
2018-12-20T03:57:35.177Z,0
2018-12-20T03:58:35.490Z,0
2018-12-20T03:59:35.377Z,0
2018-12-20T04:00:35.529Z,0
2018-12-20T04:01:35.295Z,0
2018-12-20T04:02:35.183Z,0
2018-12-20T04:03:35.493Z,0
2018-12-20T04:04:35.430Z,0
2018-12-20T04:05:35.705Z,0
2018-12-20T04:06:35.615Z,0
2018-12-20T04:07:35.408Z,0
2018-12-20T04:08:35.374Z,0
2018-12-20T04:09:34.675Z,0
2018-12-20T04:10:35.525Z,0
2018-12-20T04:11:35.675Z,0
2018-12-20T04:12:35.733Z,0
2018-12-20T04:13:35.404Z,0
2018-12-20T04:14:35.035Z,0
2018-12-20T04:15:42.690Z,0
2018-12-20T04:16:35.592Z,0
2018-12-20T04:17:35.551Z,0
2018-12-20T04:18:35.291Z,0
2018-12-20T04:19:35.087Z,0
2018-12-20T04:20:35.251Z,0
2018-12-20T04:21:37.597Z,0
2018-12-20T04:22:35.274Z,0
2018-12-20T04:23:35.183Z,0
2018-12-20T04:24:35.472Z,0
2018-12-20T04:25:35.574Z,0
2018-12-20T04:26:35.405Z,0
2018-12-20T04:27:35.393Z,0
2018-12-20T04:28:35.186Z,0
2018-12-20T04:29:35.222Z,0
2018-12-20T04:30:35.011Z,0
2018-12-20T04:31:35.209Z,0
2018-12-20T04:32:35.495Z,0
2018-12-20T04:33:34.655Z,0
2018-12-20T04:34:35.084Z,0
2018-12-20T04:35:34.983Z,0
2018-12-20T04:36:35.394Z,0
2018-12-20T04:37:35.204Z,0
2018-12-20T04:38:35.781Z,0
2018-12-20T04:39:35.446Z,0
2018-12-20T04:40:35.465Z,0
2018-12-20T04:41:34.839Z,0
2018-12-20T04:42:34.804Z,0
2018-12-20T04:43:34.927Z,0
2018-12-20T04:44:35.188Z,0
2018-12-20T04:45:34.826Z,0
2018-12-20T04:46:35.627Z,0
2018-12-20T04:47:34.977Z,0
2018-12-20T04:48:35.762Z,0
2018-12-20T04:49:35.324Z,0
2018-12-20T04:50:35.307Z,0
2018-12-20T04:51:35.515Z,0
2018-12-20T04:52:37.603Z,0
2018-12-20T04:53:34.908Z,0
2018-12-20T04:54:35.007Z,0
2018-12-20T04:55:35.269Z,0
2018-12-20T04:56:35.106Z,0
2018-12-20T04:57:35.276Z,0
2018-12-20T04:58:35.420Z,0
2018-12-20T04:59:35.133Z,0
2018-12-20T05:00:35.120Z,0
2018-12-20T05:01:35.194Z,0
2018-12-20T05:02:35.037Z,0
2018-12-20T05:03:35.245Z,0
2018-12-20T05:04:34.923Z,0
2018-12-20T05:05:34.402Z,0
2018-12-20T05:06:35.039Z,0
2018-12-20T05:07:35.176Z,0
2018-12-20T05:08:34.956Z,0
2018-12-20T05:09:34.687Z,0
2018-12-20T05:10:35.259Z,0
2018-12-20T05:11:35.331Z,0
2018-12-20T05:12:35.117Z,0
2018-12-20T05:13:35.331Z,0
2018-12-20T05:14:35.037Z,0
2018-12-20T05:15:34.976Z,0
2018-12-20T05:16:35.133Z,0
2018-12-20T05:17:35.070Z,0
2018-12-20T05:18:34.980Z,0
2018-12-20T05:19:34.969Z,0
2018-12-20T05:20:35.196Z,0
2018-12-20T05:21:34.625Z,0
2018-12-20T05:22:35.940Z,0
2018-12-20T05:23:34.780Z,0
2018-12-20T05:24:34.785Z,0
2018-12-20T05:25:34.939Z,0
2018-12-20T05:26:34.749Z,0
2018-12-20T05:27:34.843Z,0
2018-12-20T05:28:34.743Z,0
2018-12-20T05:29:34.750Z,0
2018-12-20T05:30:34.639Z,0
2018-12-20T05:31:34.809Z,0
2018-12-20T05:32:34.495Z,0
2018-12-20T05:33:34.700Z,0
2018-12-20T05:34:34.435Z,0
2018-12-20T05:35:34.306Z,0
2018-12-20T05:36:34.693Z,0
2018-12-20T05:37:34.849Z,0
2018-12-20T05:38:34.871Z,0
2018-12-20T05:39:34.656Z,0
2018-12-20T05:40:34.630Z,0
2018-12-20T05:41:34.889Z,0
2018-12-20T05:42:34.952Z,0
2018-12-20T05:43:34.693Z,0
2018-12-20T05:44:34.397Z,0
2018-12-20T05:45:34.675Z,0
2018-12-20T05:46:34.391Z,0
2018-12-20T05:47:34.644Z,0
2018-12-20T05:48:34.457Z,0
2018-12-20T05:49:34.181Z,0
2018-12-20T05:50:34.165Z,0
2018-12-20T05:51:34.645Z,0
2018-12-20T05:52:35.035Z,0
2018-12-20T05:53:34.943Z,0
2018-12-20T05:54:34.759Z,0
2018-12-20T05:55:34.475Z,0
2018-12-20T05:56:34.224Z,0
2018-12-20T05:57:34.944Z,0
2018-12-20T05:58:34.138Z,0
2018-12-20T05:59:34.287Z,0
2018-12-20T06:00:34.177Z,0
2018-12-20T06:01:34.133Z,0
2018-12-20T06:02:34.652Z,0
2018-12-20T06:03:34.711Z,0
2018-12-20T06:04:34.907Z,0
2018-12-20T06:05:34.776Z,0
2018-12-20T06:06:34.467Z,0
2018-12-20T06:07:34.636Z,0
2018-12-20T06:08:34.344Z,0
2018-12-20T06:09:34.637Z,0
2018-12-20T06:10:34.394Z,0
2018-12-20T06:11:33.922Z,0
2018-12-20T06:12:34.538Z,0
2018-12-20T06:13:34.800Z,0
2018-12-20T06:14:34.108Z,0
2018-12-20T06:15:34.263Z,0
2018-12-20T06:16:33.540Z,0
2018-12-20T06:17:34.283Z,0
2018-12-20T06:18:34.313Z,0
2018-12-20T06:19:34.529Z,0
2018-12-20T06:20:34.478Z,0
2018-12-20T06:21:34.188Z,0
2018-12-20T06:22:34.651Z,0
2018-12-20T06:23:34.193Z,0
2018-12-20T06:24:34.174Z,0
2018-12-20T06:25:33.903Z,0
2018-12-20T06:26:33.893Z,0
2018-12-20T06:27:33.880Z,0
2018-12-20T06:28:34.137Z,0
2018-12-20T06:29:33.859Z,0
2018-12-20T06:30:34.104Z,0
2018-12-20T06:31:33.876Z,0
2018-12-20T06:32:34.104Z,0
2018-12-20T06:33:33.855Z,0
2018-12-20T06:34:33.829Z,0
2018-12-20T06:35:33.828Z,0
2018-12-20T06:36:33.560Z,0
2018-12-20T06:37:36.510Z,0
2018-12-20T06:38:33.813Z,0
2018-12-20T06:39:33.797Z,0
2018-12-20T06:40:34.023Z,0
2018-12-20T06:41:34.028Z,4
2018-12-20T06:42:33.754Z,4
2018-12-20T06:43:33.746Z,4
2018-12-20T06:44:34.015Z,0
2018-12-20T06:45:33.755Z,0
2018-12-20T06:46:33.726Z,4
2018-12-20T06:47:33.980Z,4
2018-12-20T06:48:34.003Z,4
2018-12-20T06:49:33.707Z,4
2018-12-20T06:50:33.958Z,8
2018-12-20T06:51:33.698Z,4
2018-12-20T06:52:33.683Z,8
2018-12-20T06:53:33.663Z,4
2018-12-20T06:54:34.027Z,8
2018-12-20T06:55:33.670Z,8
2018-12-20T06:56:33.650Z,8
2018-12-20T06:57:34.401Z,12
2018-12-20T06:58:33.374Z,16
2018-12-20T06:59:33.687Z,16
2018-12-20T07:00:33.684Z,20
2018-12-20T07:01:33.632Z,20
2018-12-20T07:02:33.347Z,24
2018-12-20T07:03:33.592Z,28
2018-12-20T07:04:33.581Z,32
2018-12-20T07:05:33.584Z,40
2018-12-20T07:06:33.578Z,44
2018-12-20T07:07:33.336Z,48
2018-12-20T07:08:35.146Z,52
2018-12-20T07:09:33.545Z,56
2018-12-20T07:10:33.780Z,60
2018-12-20T07:11:33.327Z,68
2018-12-20T07:12:33.513Z,76
2018-12-20T07:13:33.760Z,76
2018-12-20T07:14:33.514Z,84
2018-12-20T07:15:33.487Z,88
2018-12-20T07:16:36.713Z,100
2018-12-20T07:17:33.469Z,108
2018-12-20T07:18:33.329Z,120
2018-12-20T07:19:33.710Z,136
2018-12-20T07:20:33.728Z,152
2018-12-20T07:21:33.431Z,168
2018-12-20T07:22:33.696Z,192
2018-12-20T07:23:37.654Z,212
2018-12-20T07:24:33.421Z,228
2018-12-20T07:25:33.655Z,248
2018-12-20T07:26:33.638Z,276
2018-12-20T07:27:33.440Z,304
2018-12-20T07:28:33.127Z,340
2018-12-20T07:29:33.400Z,380
2018-12-20T07:30:33.398Z,396
2018-12-20T07:31:33.340Z,412
2018-12-20T07:32:33.339Z,412
2018-12-20T07:33:33.106Z,416
2018-12-20T07:34:33.106Z,400
2018-12-20T07:35:33.319Z,384
2018-12-20T07:36:33.316Z,384
2018-12-20T07:37:33.555Z,396
2018-12-20T07:38:33.293Z,376
2018-12-20T07:39:33.463Z,372
2018-12-20T07:40:33.040Z,384
2018-12-20T07:41:32.786Z,364
2018-12-20T07:42:33.020Z,356
2018-12-20T07:43:33.257Z,364
2018-12-20T07:44:33.558Z,380
2018-12-20T07:45:32.991Z,384
2018-12-20T07:46:40.290Z,396
2018-12-20T07:47:33.620Z,432
2018-12-20T07:48:39.381Z,480
2018-12-20T07:49:33.309Z,528
2018-12-20T07:50:33.455Z,576
2018-12-20T07:51:33.439Z,636
2018-12-20T07:52:33.196Z,700
2018-12-20T07:53:32.936Z,736
2018-12-20T07:54:34.553Z,752
2018-12-20T07:55:32.739Z,748
2018-12-20T07:56:33.417Z,752
2018-12-20T07:57:32.966Z,776
2018-12-20T07:58:33.161Z,796
2018-12-20T07:59:33.156Z,784
2018-12-20T08:00:33.146Z,780
2018-12-20T08:01:32.875Z,788
2018-12-20T08:02:33.105Z,764
2018-12-20T08:03:32.616Z,800
2018-12-20T08:04:32.850Z,840
2018-12-20T08:05:33.105Z,904
2018-12-20T08:06:32.856Z,1000
2018-12-20T08:07:33.079Z,1068
2018-12-20T08:08:33.066Z,1124
2018-12-20T08:09:34.678Z,1132
2018-12-20T08:10:32.820Z,1124
2018-12-20T08:11:33.044Z,1136
2018-12-20T08:12:33.339Z,1120
2018-12-20T08:13:33.057Z,1076
2018-12-20T08:14:33.156Z,1084
2018-12-20T08:15:32.776Z,1088
2018-12-20T08:16:33.017Z,1104
2018-12-20T08:17:32.991Z,1120
2018-12-20T08:18:32.976Z,1068
2018-12-20T08:19:40.945Z,1080
2018-12-20T08:20:33.203Z,1140
2018-12-20T08:21:32.947Z,1120
2018-12-20T08:22:32.982Z,1096
2018-12-20T08:23:32.943Z,1040
2018-12-20T08:24:32.941Z,964
2018-12-20T08:25:34.748Z,900
2018-12-20T08:26:32.917Z,844
2018-12-20T08:27:32.695Z,800
2018-12-20T08:28:32.688Z,816
2018-12-20T08:29:32.981Z,892
2018-12-20T08:30:32.508Z,1008
2018-12-20T08:31:33.147Z,1064
2018-12-20T08:32:33.197Z,1068
2018-12-20T08:33:32.903Z,1080
2018-12-20T08:34:32.883Z,1116
2018-12-20T08:35:32.626Z,1152
2018-12-20T08:36:33.113Z,1176
2018-12-20T08:37:32.862Z,1192
2018-12-20T08:38:32.843Z,1204
2018-12-20T08:39:32.920Z,1216
2018-12-20T08:40:33.049Z,1224
2018-12-20T08:41:32.541Z,1244
2018-12-20T08:42:32.790Z,1268
2018-12-20T08:43:33.070Z,1296
2018-12-20T08:44:33.070Z,1320
2018-12-20T08:45:33.030Z,1352
2018-12-20T08:46:34.148Z,1388
2018-12-20T08:47:32.780Z,1428
2018-12-20T08:48:32.776Z,1468
2018-12-20T08:49:32.752Z,1516
2018-12-20T08:50:32.788Z,1568
2018-12-20T08:51:32.754Z,1624
2018-12-20T08:52:32.512Z,1680
2018-12-20T08:53:32.757Z,1740
2018-12-20T08:54:32.723Z,1796
2018-12-20T08:55:33.021Z,1848
2018-12-20T08:56:32.963Z,1904
2018-12-20T08:57:32.964Z,1964
2018-12-20T08:58:32.459Z,2036
2018-12-20T08:59:32.692Z,2124
2018-12-20T09:00:32.676Z,2224
2018-12-20T09:01:32.690Z,2328
2018-12-20T09:02:32.902Z,2432
2018-12-20T09:03:32.419Z,2540
2018-12-20T09:04:32.939Z,2672
2018-12-20T09:05:32.400Z,2748
2018-12-20T09:06:33.007Z,2776
2018-12-20T09:07:32.400Z,2836
2018-12-20T09:08:32.859Z,2900
2018-12-20T09:09:32.622Z,2944
2018-12-20T09:10:32.661Z,3004
2018-12-20T09:11:32.843Z,3020
2018-12-20T09:12:32.589Z,3048
2018-12-20T09:13:32.582Z,3072
2018-12-20T09:14:32.576Z,3104
2018-12-20T09:15:33.367Z,3148
2018-12-20T09:16:32.315Z,3212
2018-12-20T09:17:32.804Z,3244
2018-12-20T09:18:32.386Z,3276
2018-12-20T09:19:32.309Z,3344
2018-12-20T09:20:39.471Z,3396
2018-12-20T09:21:32.517Z,3372
2018-12-20T09:22:32.662Z,3408
2018-12-20T09:23:32.534Z,3456
2018-12-20T09:24:32.262Z,3504
2018-12-20T09:25:32.496Z,3676
2018-12-20T09:26:32.281Z,3772
2018-12-20T09:27:32.672Z,3948
2018-12-20T09:28:32.499Z,4052
2018-12-20T09:29:32.484Z,3584
2018-12-20T09:30:37.814Z,3488
2018-12-20T09:31:32.729Z,3480
2018-12-20T09:32:32.452Z,3528
2018-12-20T09:33:32.206Z,3504
2018-12-20T09:34:32.285Z,3508
2018-12-20T09:35:32.448Z,3508
2018-12-20T09:36:32.681Z,3516
2018-12-20T09:37:32.421Z,3524
2018-12-20T09:38:32.663Z,3540
2018-12-20T09:39:32.717Z,3560
2018-12-20T09:40:31.918Z,3596
2018-12-20T09:41:32.637Z,3624
2018-12-20T09:42:32.395Z,3644
2018-12-20T09:43:32.387Z,3652
2018-12-20T09:44:32.652Z,3664
2018-12-20T09:45:32.119Z,3668
2018-12-20T09:46:32.373Z,3672
2018-12-20T09:47:32.672Z,3672
2018-12-20T09:48:32.614Z,3676
2018-12-20T09:49:32.523Z,3688
2018-12-20T09:50:32.369Z,3684
2018-12-20T09:51:32.586Z,3684
2018-12-20T09:52:32.578Z,3700
2018-12-20T09:53:32.363Z,3708
2018-12-20T09:54:32.570Z,3760
2018-12-20T09:55:32.563Z,3848
2018-12-20T09:56:36.319Z,3976
2018-12-20T09:57:33.299Z,4108
2018-12-20T09:58:32.305Z,4492
2018-12-20T09:59:32.549Z,5216
2018-12-20T10:00:32.538Z,4808
2018-12-20T10:01:32.304Z,4524
2018-12-20T10:02:32.526Z,4628
2018-12-20T10:03:32.538Z,4660
2018-12-20T10:04:32.511Z,4552
2018-12-20T10:05:32.310Z,4616
2018-12-20T10:06:31.998Z,4552
2018-12-20T10:07:31.992Z,4616
2018-12-20T10:08:32.493Z,4616
2018-12-20T10:09:33.909Z,4664
2018-12-20T10:10:32.309Z,4644
2018-12-20T10:11:31.947Z,4600
2018-12-20T10:12:31.957Z,4572
2018-12-20T10:13:32.448Z,4536
2018-12-20T10:14:32.188Z,4500
2018-12-20T10:15:32.191Z,4428
2018-12-20T10:16:32.199Z,4328
2018-12-20T10:17:32.202Z,4212
2018-12-20T10:18:31.926Z,4076
2018-12-20T10:19:31.943Z,3944
2018-12-20T10:20:32.520Z,3828
2018-12-20T10:21:31.915Z,3744
2018-12-20T10:22:32.161Z,3696
2018-12-20T10:23:32.141Z,3676
2018-12-20T10:24:31.889Z,3688
2018-12-20T10:25:32.368Z,3696
2018-12-20T10:26:32.003Z,3700
2018-12-20T10:27:38.380Z,3704
2018-12-20T10:28:32.150Z,3712
2018-12-20T10:29:31.908Z,3756
2018-12-20T10:30:32.370Z,3836
2018-12-20T10:31:32.081Z,3948
2018-12-20T10:32:32.311Z,4100
2018-12-20T10:33:32.070Z,4252
2018-12-20T10:34:31.836Z,4364
2018-12-20T10:35:31.577Z,4436
2018-12-20T10:36:32.109Z,4480
2018-12-20T10:37:32.044Z,4476
2018-12-20T10:38:32.060Z,4432
2018-12-20T10:39:32.034Z,4364
2018-12-20T10:40:32.261Z,4300
2018-12-20T10:41:32.463Z,4236
2018-12-20T10:42:32.017Z,4200
2018-12-20T10:43:32.020Z,4168
2018-12-20T10:44:32.006Z,4148
2018-12-20T10:45:31.771Z,4172
2018-12-20T10:46:32.014Z,4072
2018-12-20T10:47:36.234Z,4000
2018-12-20T10:48:32.250Z,3824
2018-12-20T10:49:31.782Z,3596
2018-12-20T10:50:32.002Z,3396
2018-12-20T10:51:31.758Z,3204
2018-12-20T10:52:32.014Z,3016
2018-12-20T10:53:32.219Z,2856
2018-12-20T10:54:31.966Z,2704
2018-12-20T10:55:32.213Z,2572
2018-12-20T10:56:31.975Z,2464
2018-12-20T10:57:31.982Z,2368
2018-12-20T10:58:31.949Z,2288
2018-12-20T10:59:32.188Z,2224
2018-12-20T11:00:32.189Z,2176
2018-12-20T11:01:31.688Z,2132
2018-12-20T11:02:31.923Z,2072
2018-12-20T11:03:32.164Z,2008
2018-12-20T11:04:32.195Z,1932
2018-12-20T11:05:31.660Z,1840
2018-12-20T11:06:31.633Z,1756
2018-12-20T11:07:32.138Z,1696
2018-12-20T11:08:31.881Z,1680
2018-12-20T11:09:31.647Z,1664
2018-12-20T11:10:32.130Z,1636
2018-12-20T11:11:32.130Z,1596
2018-12-20T11:12:33.763Z,1560
2018-12-20T11:13:32.114Z,1564
2018-12-20T11:14:31.632Z,1604
2018-12-20T11:15:31.827Z,1640
2018-12-20T11:16:31.828Z,1656
2018-12-20T11:17:39.704Z,1668
2018-12-20T11:18:32.061Z,1672
2018-12-20T11:19:31.801Z,1676
2018-12-20T11:20:31.545Z,1684
2018-12-20T11:21:31.571Z,1676
2018-12-20T11:22:32.043Z,1668
2018-12-20T11:23:31.554Z,1664
2018-12-20T11:24:32.042Z,1660
2018-12-20T11:25:31.553Z,1668
2018-12-20T11:26:31.541Z,1692
2018-12-20T11:27:32.075Z,1736
2018-12-20T11:28:31.998Z,1792
2018-12-20T11:29:32.023Z,1848
2018-12-20T11:30:31.759Z,1908
2018-12-20T11:31:31.495Z,1952
2018-12-20T11:32:31.847Z,1984
2018-12-20T11:33:31.982Z,2000
2018-12-20T11:34:31.982Z,1996
2018-12-20T11:35:31.756Z,2000
2018-12-20T11:36:31.711Z,2012
2018-12-20T11:37:31.968Z,2012
2018-12-20T11:38:31.730Z,1988
2018-12-20T11:39:31.736Z,1884
2018-12-20T11:40:31.687Z,1692
2018-12-20T11:41:31.711Z,1536
2018-12-20T11:42:35.345Z,1468
2018-12-20T11:43:31.447Z,1432
2018-12-20T11:44:31.687Z,1388
2018-12-20T11:45:31.436Z,1368
2018-12-20T11:46:31.411Z,1384
2018-12-20T11:47:31.381Z,1408
2018-12-20T11:48:31.621Z,1440
2018-12-20T11:49:31.626Z,1496
2018-12-20T11:50:31.843Z,1564
2018-12-20T11:51:31.600Z,1604
2018-12-20T11:52:31.589Z,1596
2018-12-20T11:53:31.845Z,1560
2018-12-20T11:54:31.597Z,1564
2018-12-20T11:55:31.365Z,1592
2018-12-20T11:56:31.595Z,1628
2018-12-20T11:57:31.823Z,1668
2018-12-20T11:58:31.834Z,1708
2018-12-20T11:59:31.554Z,1744
2018-12-20T12:00:31.311Z,1788
2018-12-20T12:01:31.817Z,1884
2018-12-20T12:02:31.545Z,2004
2018-12-20T12:03:31.826Z,2092
2018-12-20T12:04:31.783Z,2156
2018-12-20T12:05:31.548Z,2204
2018-12-20T12:06:31.862Z,2216
2018-12-20T12:07:31.612Z,2232
2018-12-20T12:08:31.533Z,2280
2018-12-20T12:09:31.260Z,2320
2018-12-20T12:10:31.510Z,2340
2018-12-20T12:11:31.501Z,2364
2018-12-20T12:12:31.238Z,2404
2018-12-20T12:13:33.152Z,2420
2018-12-20T12:14:31.755Z,2432
2018-12-20T12:15:33.513Z,2484
2018-12-20T12:16:31.244Z,2552
2018-12-20T12:17:31.469Z,2624
2018-12-20T12:18:31.718Z,2676
2018-12-20T12:19:31.462Z,2712
2018-12-20T12:20:31.227Z,2744
2018-12-20T12:21:31.450Z,2764
2018-12-20T12:22:31.222Z,2776
2018-12-20T12:23:31.686Z,2792
2018-12-20T12:24:31.442Z,2796
2018-12-20T12:25:31.668Z,2808
2018-12-20T12:26:31.693Z,2820
2018-12-20T12:27:31.663Z,2840
2018-12-20T12:28:33.267Z,2848
2018-12-20T12:29:31.472Z,2808
2018-12-20T12:30:31.658Z,2756
2018-12-20T12:31:30.888Z,2716
2018-12-20T12:32:31.636Z,2688
2018-12-20T12:33:31.624Z,2652
2018-12-20T12:34:31.388Z,2624
2018-12-20T12:35:31.608Z,2592
2018-12-20T12:36:31.372Z,2536
2018-12-20T12:37:31.599Z,2476
2018-12-20T12:38:31.338Z,2428
2018-12-20T12:39:31.332Z,2392
2018-12-20T12:40:31.946Z,2360
2018-12-20T12:41:31.335Z,2344
2018-12-20T12:42:31.354Z,2340
2018-12-20T12:43:31.406Z,2356
2018-12-20T12:44:31.570Z,2384
2018-12-20T12:45:31.059Z,2408
2018-12-20T12:46:30.861Z,2428
2018-12-20T12:47:31.111Z,2448
2018-12-20T12:48:31.315Z,2472
2018-12-20T12:49:31.547Z,2488
2018-12-20T12:50:31.527Z,2488
2018-12-20T12:51:31.043Z,2492
2018-12-20T12:52:31.037Z,2496
2018-12-20T12:53:31.512Z,2508
2018-12-20T12:54:31.000Z,2512
2018-12-20T12:55:31.358Z,2508
2018-12-20T12:56:31.246Z,2492
2018-12-20T12:57:31.229Z,2468
2018-12-20T12:58:31.342Z,2452
2018-12-20T12:59:31.219Z,2448
2018-12-20T13:00:31.467Z,2456
2018-12-20T13:01:31.537Z,2480
2018-12-20T13:02:31.465Z,2508
2018-12-20T13:03:31.461Z,2540
2018-12-20T13:04:31.200Z,2604
2018-12-20T13:05:31.182Z,2704
2018-12-20T13:06:31.524Z,2792
2018-12-20T13:07:30.946Z,2840
2018-12-20T13:08:31.415Z,2892
2018-12-20T13:09:31.174Z,2932
2018-12-20T13:10:31.170Z,2992
2018-12-20T13:11:30.926Z,3092
2018-12-20T13:12:31.408Z,3224
2018-12-20T13:13:31.487Z,3344
2018-12-20T13:14:31.496Z,3676
2018-12-20T13:15:31.399Z,3856
2018-12-20T13:16:31.392Z,3732
2018-12-20T13:17:31.363Z,3976
2018-12-20T13:18:30.917Z,4264
2018-12-20T13:19:31.355Z,4480
2018-12-20T13:20:31.368Z,4664
2018-12-20T13:21:31.101Z,4824
2018-12-20T13:22:31.197Z,4712
2018-12-20T13:23:32.403Z,4728
2018-12-20T13:24:30.858Z,4836
2018-12-20T13:25:30.598Z,4976
2018-12-20T13:26:31.339Z,5104
2018-12-20T13:27:31.139Z,5264
2018-12-20T13:28:30.835Z,5408
2018-12-20T13:29:31.358Z,5520
2018-12-20T13:30:31.288Z,5608
2018-12-20T13:31:31.291Z,5652
2018-12-20T13:32:31.027Z,5572
2018-12-20T13:33:31.024Z,5388
2018-12-20T13:34:31.282Z,5160
2018-12-20T13:35:31.308Z,4960
2018-12-20T13:36:31.268Z,4752
2018-12-20T13:37:30.761Z,4532
2018-12-20T13:38:31.261Z,4292
2018-12-20T13:39:30.784Z,4024
2018-12-20T13:40:31.009Z,3808
2018-12-20T13:41:30.990Z,3696
2018-12-20T13:42:31.240Z,3552
2018-12-20T13:43:31.020Z,3348
2018-12-20T13:44:31.035Z,3136
2018-12-20T13:45:30.989Z,2988
2018-12-20T13:46:31.218Z,2836
2018-12-20T13:47:30.967Z,2696
2018-12-20T13:48:31.202Z,2616
2018-12-20T13:49:30.976Z,2560
2018-12-20T13:50:31.202Z,2476
2018-12-20T13:51:30.971Z,2420
2018-12-20T13:52:30.953Z,2376
2018-12-20T13:53:31.203Z,2296
2018-12-20T13:54:30.434Z,2224
2018-12-20T13:55:30.676Z,2272
2018-12-20T13:56:31.169Z,2272
2018-12-20T13:57:30.923Z,2204
2018-12-20T13:58:30.685Z,2064
2018-12-20T13:59:30.794Z,2048
2018-12-20T14:00:31.153Z,2100
2018-12-20T14:01:31.150Z,2100
2018-12-20T14:02:30.641Z,2108
2018-12-20T14:03:31.171Z,2128